Portada
METAR-TAF:

METAR-TAF

Aeropuertos :

Aeropuerto de Zaragoza

Zaragoza, España

latitud: 41-40N, longitud: 001-01W, altitud: 263 m

Observación

El informe se hizo hace 36 minutos, a las 05:30 UTC
Viento 4 kt del sureste, variando entre este-sureste y sur
Temperatura 17°C
Humedad 88%
Presión 1017 hPa
Visibilidad 10 km o más
Escasas nubes a una altura de 4000 ft

METAR: LEZG 240530Z 14004KT 110V170 9999 FEW040 17/15 Q1017

Hora: 08:06 (06:06 UTC)

Pronóstico

El informe se hizo hace 1 hora y 6 minutos, a las 05:00 UTC
Pronóstico válido del 24 a las 06 UTC al 25 a las 06 UTC
Viento 7 kt del este-sureste
Visibilidad 10 km o más
Nubes dispersas a una altura de 2000 ft
Probabilidad 30% :
Temporalmente
del 24 a las 14 UTC al 24 a las 20 UTC
Nubes dispersas a una altura de 4000 ft
Escasas nubes a una altura de 6000 ft, Cumulonimbus.
tormenta, lluvia

TAF: LEZG 240500Z 2406/2506 11007KT 9999 SCT020 TX31/2414Z TN16/2406Z PROB30 TEMPO 2414/2420 TSRA SCT040 FEW060CB

Observaciones y pronósticos meteorológicos de más de 4000 aeropuertos (mensajes METAR y TAF).

Los puntos amarillos y rojos representan las estaciones disponibles.

Ponga el ratón en el punto deseado para ver el nombre de la estación.

Haga clic para ver las observaciones y los pronósticos meteorológicos.

Para cambiar el mapa : haga clic en los botones verdes con una cruz de color negro para hacer un zoom, en el botón verde con un guión para alejar o en las flechas verdes para mapas adyacentes.


METAR-TAF: